International Virtual Aviation Organisation

Russian Federation and Kazakhstan MCD

 

Карточка аэропорта UHMA

Внимание!
Информация на этой странице в стадии наполнения.
Если вы не увидели какой-то информации, или заметили неточность - пожалуйста сообщите нам!
Спасибо!
Команда RU-STAFF
Название аэропортаУгольный
Название аэропорта (англ.)Ugolny
Превышение194 ft. (59.1 m.)
Координаты64°44.1', 177°44.28'
Высота перехода1600m
Эшелон переходаQFE>=755mm:FL070; QFE<755=>728:FL080; QFE<728:FL090
Коды ответчика6501-6537
Зона ОрВДМагадан РПИ (UHMM)
Данные METARUHMA 181900Z 05002MPS 9999 SCT051 03/00 Q1008 R01/////// NOSIG RMK TDZ R01/05002MPS END R01/00000G01MPS QFE752/1003
Проноз погоды (TAF)UHMA 181653Z 1818/1918 03003MPS 9999 BKN033 TEMPO 1818/1909 18005MPS 5000 -SHRA SCT015 BKN025CB TEMPO 1909/1918 34006MPS 5000 -SHRASN SCT006 BKN020CB
NOTAMshow/hide NOTAM
AWOS   TABLE

Информация о ВПП


Диспетчерские позиции

Позывной Наименование органа УВД Частота
UHMA_APPАнадырь-Подход124.0
UHMA_TWRАнадырь-Старт124.0



Спутниковое изображение